sensor_id;sensor_type;location;lat;lon;timestamp;pressure;altitude;pressure_sealevel;temperature;humidity
25238;BME280;13185;50.872;5.306;2023-05-23T00:01:40;101552.47;;;15.38;100.00
25238;BME280;13185;50.872;5.306;2023-05-23T00:04:07;101557.75;;;15.39;100.00
25238;BME280;13185;50.872;5.306;2023-05-23T00:06:34;101559.69;;;15.37;99.90
25238;BME280;13185;50.872;5.306;2023-05-23T00:09:01;101550.84;;;15.35;99.86
25238;BME280;13185;50.872;5.306;2023-05-23T00:11:27;101550.31;;;15.30;99.84
25238;BME280;13185;50.872;5.306;2023-05-23T00:13:54;101552.38;;;15.26;99.86
25238;BME280;13185;50.872;5.306;2023-05-23T00:16:20;101556.19;;;15.24;100.00
25238;BME280;13185;50.872;5.306;2023-05-23T00:18:47;101554.66;;;15.20;99.85
25238;BME280;13185;50.872;5.306;2023-05-23T00:21:14;101556.75;;;15.16;99.48
25238;BME280;13185;50.872;5.306;2023-05-23T00:23:41;101557.94;;;15.12;99.86
25238;BME280;13185;50.872;5.306;2023-05-23T00:26:07;101558.16;;;15.09;99.92
25238;BME280;13185;50.872;5.306;2023-05-23T00:28:33;101559.34;;;15.05;99.84
25238;BME280;13185;50.872;5.306;2023-05-23T00:30:58;101561.50;;;15.00;99.65
25238;BME280;13185;50.872;5.306;2023-05-23T00:33:25;101561.97;;;14.94;99.99
25238;BME280;13185;50.872;5.306;2023-05-23T00:35:50;101565.75;;;14.91;99.90
25238;BME280;13185;50.872;5.306;2023-05-23T00:38:17;101575.16;;;14.86;100.00
25238;BME280;13185;50.872;5.306;2023-05-23T00:40:43;101570.09;;;14.81;100.00
25238;BME280;13185;50.872;5.306;2023-05-23T00:43:09;101573.84;;;14.79;100.00
25238;BME280;13185;50.872;5.306;2023-05-23T00:45:34;101568.91;;;14.72;100.00
25238;BME280;13185;50.872;5.306;2023-05-23T00:48:00;101573.63;;;14.69;100.00
25238;BME280;13185;50.872;5.306;2023-05-23T00:50:27;101577.53;;;14.65;100.00
25238;BME280;13185;50.872;5.306;2023-05-23T00:52:54;101567.94;;;14.61;100.00
25238;BME280;13185;50.872;5.306;2023-05-23T00:55:22;101582.50;;;14.58;100.00
25238;BME280;13185;50.872;5.306;2023-05-23T00:57:48;101574.63;;;14.55;100.00
25238;BME280;13185;50.872;5.306;2023-05-23T01:00:16;101583.91;;;14.51;100.00
25238;BME280;13185;50.872;5.306;2023-05-23T01:02:45;101593.09;;;14.49;100.00
25238;BME280;13185;50.872;5.306;2023-05-23T01:05:14;101585.19;;;14.46;100.00
25238;BME280;13185;50.872;5.306;2023-05-23T01:07:45;101584.41;;;14.43;100.00
25238;BME280;13185;50.872;5.306;2023-05-23T01:10:15;101578.25;;;14.41;100.00
25238;BME280;13185;50.872;5.306;2023-05-23T01:13:09;101587.09;;;14.43;100.00
25238;BME280;13185;50.872;5.306;2023-05-23T01:16:35;101591.56;;;14.44;100.00
25238;BME280;13185;50.872;5.306;2023-05-23T01:18:48;101599.56;;;14.46;100.00
25238;BME280;13185;50.872;5.306;2023-05-23T01:21:20;101602.13;;;14.48;100.00
25238;BME280;13185;50.872;5.306;2023-05-23T01:26:43;101610.22;;;14.48;100.00
25238;BME280;13185;50.872;5.306;2023-05-23T01:29:25;101621.13;;;14.46;100.00
25238;BME280;13185;50.872;5.306;2023-05-23T01:31:54;101629.25;;;14.46;100.00
25238;BME280;13185;50.872;5.306;2023-05-23T01:34:22;101631.16;;;14.44;100.00
25238;BME280;13185;50.872;5.306;2023-05-23T01:36:54;101630.28;;;14.43;100.00
25238;BME280;13185;50.872;5.306;2023-05-23T01:39:21;101634.75;;;14.44;100.00
25238;BME280;13185;50.872;5.306;2023-05-23T01:41:48;101635.59;;;14.45;100.00
25238;BME280;13185;50.872;5.306;2023-05-23T01:44:14;101621.03;;;14.48;100.00
25238;BME280;13185;50.872;5.306;2023-05-23T01:46:40;101611.88;;;14.50;100.00
25238;BME280;13185;50.872;5.306;2023-05-23T01:49:07;101614.69;;;14.49;100.00
25238;BME280;13185;50.872;5.306;2023-05-23T01:51:35;101618.25;;;14.49;100.00
25238;BME280;13185;50.872;5.306;2023-05-23T01:54:01;101616.50;;;14.48;100.00
25238;BME280;13185;50.872;5.306;2023-05-23T01:56:27;101614.69;;;14.49;100.00
25238;BME280;13185;50.872;5.306;2023-05-23T01:58:53;101611.88;;;14.50;100.00
25238;BME280;13185;50.872;5.306;2023-05-23T02:01:20;101616.41;;;14.50;100.00
25238;BME280;13185;50.872;5.306;2023-05-23T02:03:45;101619.13;;;14.50;100.00
25238;BME280;13185;50.872;5.306;2023-05-23T02:06:11;101625.50;;;14.49;100.00
25238;BME280;13185;50.872;5.306;2023-05-23T02:08:37;101614.69;;;14.49;100.00
25238;BME280;13185;50.872;5.306;2023-05-23T02:11:02;101611.88;;;14.50;100.00
25238;BME280;13185;50.872;5.306;2023-05-23T02:13:28;101617.38;;;14.49;100.00
25238;BME280;13185;50.872;5.306;2023-05-23T02:15:54;101611.03;;;14.50;100.00
25238;BME280;13185;50.872;5.306;2023-05-23T02:18:20;101608.31;;;14.50;100.00
25238;BME280;13185;50.872;5.306;2023-05-23T02:20:48;101611.03;;;14.50;100.00
25238;BME280;13185;50.872;5.306;2023-05-23T02:23:14;101602.91;;;14.50;100.00
25238;BME280;13185;50.872;5.306;2023-05-23T02:25:39;101611.03;;;14.50;100.00
25238;BME280;13185;50.872;5.306;2023-05-23T02:28:05;101612.84;;;14.49;100.00
25238;BME280;13185;50.872;5.306;2023-05-23T02:30:30;101616.41;;;14.50;100.00
25238;BME280;13185;50.872;5.306;2023-05-23T02:32:56;101625.50;;;14.49;100.00
25238;BME280;13185;50.872;5.306;2023-05-23T02:35:23;101618.13;;;14.51;100.00
25238;BME280;13185;50.872;5.306;2023-05-23T02:37:48;101622.56;;;14.52;100.00
25238;BME280;13185;50.872;5.306;2023-05-23T02:40:14;101618.03;;;14.52;100.00
25238;BME280;13185;50.872;5.306;2023-05-23T02:42:40;101632.38;;;14.53;100.00
25238;BME280;13185;50.872;5.306;2023-05-23T02:45:06;101622.47;;;14.53;100.00
25238;BME280;13185;50.872;5.306;2023-05-23T02:47:32;101625.16;;;14.53;100.00
25238;BME280;13185;50.872;5.306;2023-05-23T02:49:58;101627.09;;;14.51;100.00
25238;BME280;13185;50.872;5.306;2023-05-23T02:52:24;101627.00;;;14.53;100.00
25238;BME280;13185;50.872;5.306;2023-05-23T02:54:50;101639.41;;;14.55;100.00
25238;BME280;13185;50.872;5.306;2023-05-23T02:57:16;101622.22;;;14.56;100.00
25238;BME280;13185;50.872;5.306;2023-05-23T02:59:42;101625.69;;;14.58;100.00
25238;BME280;13185;50.872;5.306;2023-05-23T03:02:08;101631.00;;;14.60;100.00
25238;BME280;13185;50.872;5.306;2023-05-23T03:04:33;101635.63;;;14.58;100.00
25238;BME280;13185;50.872;5.306;2023-05-23T03:06:59;101637.56;;;14.56;100.00
25238;BME280;13185;50.872;5.306;2023-05-23T03:09:24;101646.63;;;14.55;100.00
25238;BME280;13185;50.872;5.306;2023-05-23T03:11:51;101642.22;;;14.54;99.66
25238;BME280;13185;50.872;5.306;2023-05-23T03:14:16;101638.53;;;14.55;100.00
25238;BME280;13185;50.872;5.306;2023-05-23T03:16:42;101643.06;;;14.54;100.00
25238;BME280;13185;50.872;5.306;2023-05-23T03:19:08;101642.22;;;14.54;99.46
25238;BME280;13185;50.872;5.306;2023-05-23T03:21:33;101644.16;;;14.52;98.60
25238;BME280;13185;50.872;5.306;2023-05-23T03:24:00;101655.06;;;14.50;97.72
25238;BME280;13185;50.872;5.306;2023-05-23T03:26:26;101665.00;;;14.50;97.43
25238;BME280;13185;50.872;5.306;2023-05-23T03:28:51;101666.72;;;14.51;97.05
25238;BME280;13185;50.872;5.306;2023-05-23T03:31:18;101663.91;;;14.52;96.86
25238;BME280;13185;50.872;5.306;2023-05-23T03:33:43;101669.31;;;14.52;96.30
25238;BME280;13185;50.872;5.306;2023-05-23T03:36:09;101682.06;;;14.50;95.86
25238;BME280;13185;50.872;5.306;2023-05-23T03:38:34;101675.00;;;14.48;95.37
25238;BME280;13185;50.872;5.306;2023-05-23T03:41:00;101678.88;;;14.43;94.93
25238;BME280;13185;50.872;5.306;2023-05-23T03:43:25;101686.03;;;14.44;94.31
25238;BME280;13185;50.872;5.306;2023-05-23T03:45:52;101678.00;;;14.43;94.44
25238;BME280;13185;50.872;5.306;2023-05-23T03:48:17;101679.94;;;14.41;94.29
25238;BME280;13185;50.872;5.306;2023-05-23T03:50:43;101678.22;;;14.40;94.33
25238;BME280;13185;50.872;5.306;2023-05-23T03:53:10;101681.78;;;14.40;94.18
25238;BME280;13185;50.872;5.306;2023-05-23T03:55:38;101691.81;;;14.38;94.20
25238;BME280;13185;50.872;5.306;2023-05-23T03:58:04;101682.75;;;14.39;94.38
25238;BME280;13185;50.872;5.306;2023-05-23T04:00:30;101690.75;;;14.41;94.04
25238;BME280;13185;50.872;5.306;2023-05-23T04:02:58;101690.84;;;14.39;93.88
25238;BME280;13185;50.872;5.306;2023-05-23T04:05:23;101691.03;;;14.36;94.18
25238;BME280;13185;50.872;5.306;2023-05-23T04:07:49;101694.69;;;14.35;94.26
25238;BME280;13185;50.872;5.306;2023-05-23T04:10:16;101699.22;;;14.35;94.24
25238;BME280;13185;50.872;5.306;2023-05-23T04:12:43;101697.50;;;14.34;94.59
25238;BME280;13185;50.872;5.306;2023-05-23T04:15:13;101703.78;;;14.34;94.73
25238;BME280;13185;50.872;5.306;2023-05-23T04:17:49;101700.09;;;14.35;94.59
25238;BME280;13185;50.872;5.306;2023-05-23T04:20:16;101705.59;;;14.34;94.61
25238;BME280;13185;50.872;5.306;2023-05-23T04:22:42;101704.09;;;14.30;94.99
25238;BME280;13185;50.872;5.306;2023-05-23T04:25:08;101718.63;;;14.27;95.07
25238;BME280;13185;50.872;5.306;2023-05-23T04:27:38;101705.34;;;14.24;95.45
25238;BME280;13185;50.872;5.306;2023-05-23T04:30:06;101714.31;;;14.25;95.47
25238;BME280;13185;50.872;5.306;2023-05-23T04:32:35;101714.31;;;14.25;95.87
25238;BME280;13185;50.872;5.306;2023-05-23T04:35:01;101710.00;;;14.22;95.59
25238;BME280;13185;50.872;5.306;2023-05-23T04:37:29;101717.97;;;14.24;95.53
25238;BME280;13185;50.872;5.306;2023-05-23T04:39:58;101717.88;;;14.25;95.55
25238;BME280;13185;50.872;5.306;2023-05-23T04:42:51;101708.72;;;14.28;95.59
25238;BME280;13185;50.872;5.306;2023-05-23T04:45:40;101706.91;;;14.28;95.48
25238;BME280;13185;50.872;5.306;2023-05-23T04:48:32;101707.94;;;14.26;95.29
25238;BME280;13185;50.872;5.306;2023-05-23T04:50:59;101698.97;;;14.25;95.13
25238;BME280;13185;50.872;5.306;2023-05-23T04:53:26;101702.66;;;14.24;95.56
25238;BME280;13185;50.872;5.306;2023-05-23T04:55:52;101711.63;;;14.25;96.14
25238;BME280;13185;50.872;5.306;2023-05-23T04:58:17;101718.09;;;14.22;96.61
25238;BME280;13185;50.872;5.306;2023-05-23T05:00:43;101714.75;;;14.19;97.20
25238;BME280;13185;50.872;5.306;2023-05-23T05:03:09;101720.22;;;14.17;97.55
25238;BME280;13185;50.872;5.306;2023-05-23T05:05:40;101715.59;;;14.19;97.71
25238;BME280;13185;50.872;5.306;2023-05-23T05:08:05;101719.06;;;14.21;97.77
25238;BME280;13185;50.872;5.306;2023-05-23T05:10:33;101722.72;;;14.20;98.30
25238;BME280;13185;50.872;5.306;2023-05-23T05:12:59;101721.84;;;14.20;98.43
25238;BME280;13185;50.872;5.306;2023-05-23T05:15:30;101729.84;;;14.21;98.50
25238;BME280;13185;50.872;5.306;2023-05-23T05:17:57;101728.88;;;14.22;98.70
25238;BME280;13185;50.872;5.306;2023-05-23T05:20:23;101730.59;;;14.23;98.78
25238;BME280;13185;50.872;5.306;2023-05-23T05:22:55;101727.03;;;14.23;98.62
25238;BME280;13185;50.872;5.306;2023-05-23T05:25:22;101730.59;;;14.23;98.70
25238;BME280;13185;50.872;5.306;2023-05-23T05:27:47;101735.13;;;14.23;98.85
25238;BME280;13185;50.872;5.306;2023-05-23T05:30:16;101737.06;;;14.21;98.78
25238;BME280;13185;50.872;5.306;2023-05-23T05:32:48;101741.59;;;14.20;99.25
25238;BME280;13185;50.872;5.306;2023-05-23T05:35:13;101740.75;;;14.20;99.07
25238;BME280;13185;50.872;5.306;2023-05-23T05:37:41;101735.34;;;14.20;99.40
25238;BME280;13185;50.872;5.306;2023-05-23T05:40:08;101736.09;;;14.22;99.23
25238;BME280;13185;50.872;5.306;2023-05-23T05:42:36;101735.13;;;14.23;99.22
25238;BME280;13185;50.872;5.306;2023-05-23T05:45:02;101737.84;;;14.23;99.13
25238;BME280;13185;50.872;5.306;2023-05-23T05:47:28;101735.78;;;14.26;99.46
25238;BME280;13185;50.872;5.306;2023-05-23T05:49:54;101740.13;;;14.29;99.15
25238;BME280;13185;50.872;5.306;2023-05-23T05:52:20;101743.59;;;14.31;99.02
25238;BME280;13185;50.872;5.306;2023-05-23T05:54:45;101742.63;;;14.32;99.09
25238;BME280;13185;50.872;5.306;2023-05-23T05:57:11;101740.69;;;14.34;98.66
25238;BME280;13185;50.872;5.306;2023-05-23T05:59:37;101740.69;;;14.34;98.34
25238;BME280;13185;50.872;5.306;2023-05-23T06:02:02;101743.28;;;14.35;98.38
25238;BME280;13185;50.872;5.306;2023-05-23T06:04:29;101744.25;;;14.34;98.32
25238;BME280;13185;50.872;5.306;2023-05-23T06:06:56;101748.66;;;14.35;98.59
25238;BME280;13185;50.872;5.306;2023-05-23T06:09:22;101745.31;;;14.32;98.93
25238;BME280;13185;50.872;5.306;2023-05-23T06:11:48;101748.22;;;14.29;99.09
25238;BME280;13185;50.872;5.306;2023-05-23T06:14:14;101754.38;;;14.31;99.22
25238;BME280;13185;50.872;5.306;2023-05-23T06:16:42;101750.72;;;14.32;99.14
25238;BME280;13185;50.872;5.306;2023-05-23T06:19:08;101753.19;;;14.35;99.32
25238;BME280;13185;50.872;5.306;2023-05-23T06:21:35;101748.50;;;14.38;99.11
25238;BME280;13185;50.872;5.306;2023-05-23T06:24:04;101747.41;;;14.41;99.53
25238;BME280;13185;50.872;5.306;2023-05-23T06:26:29;101747.53;;;14.39;99.20
25238;BME280;13185;50.872;5.306;2023-05-23T06:28:56;101751.84;;;14.42;98.75
25238;BME280;13185;50.872;5.306;2023-05-23T06:31:21;101755.41;;;14.42;98.67
25238;BME280;13185;50.872;5.306;2023-05-23T06:33:47;101752.53;;;14.46;98.65
25238;BME280;13185;50.872;5.306;2023-05-23T06:36:12;101756.78;;;14.50;98.70
25238;BME280;13185;50.872;5.306;2023-05-23T06:38:38;101752.88;;;14.54;98.66
25238;BME280;13185;50.872;5.306;2023-05-23T06:41:04;101763.28;;;14.60;98.61
25238;BME280;13185;50.872;5.306;2023-05-23T06:43:32;101762.31;;;14.61;98.09
25238;BME280;13185;50.872;5.306;2023-05-23T06:46:16;101759.59;;;14.61;97.86
25238;BME280;13185;50.872;5.306;2023-05-23T06:48:41;101765.97;;;14.60;97.72
25238;BME280;13185;50.872;5.306;2023-05-23T06:51:07;101771.44;;;14.58;97.64
25238;BME280;13185;50.872;5.306;2023-05-23T06:53:33;101773.28;;;14.58;98.16
25238;BME280;13185;50.872;5.306;2023-05-23T06:55:58;101775.34;;;14.54;97.92
25238;BME280;13185;50.872;5.306;2023-05-23T06:58:25;101766.69;;;14.49;97.75
25238;BME280;13185;50.872;5.306;2023-05-23T07:00:52;101772.28;;;14.46;98.25
25238;BME280;13185;50.872;5.306;2023-05-23T07:03:26;101778.66;;;14.45;98.22
25238;BME280;13185;50.872;5.306;2023-05-23T07:05:56;101782.50;;;14.41;98.24
25238;BME280;13185;50.872;5.306;2023-05-23T07:08:22;101783.56;;;14.38;97.12
25238;BME280;13185;50.872;5.306;2023-05-23T07:11:13;101779.97;;;14.38;96.33
25238;BME280;13185;50.872;5.306;2023-05-23T07:13:42;101784.34;;;14.40;95.78
25238;BME280;13185;50.872;5.306;2023-05-23T07:16:13;101787.59;;;14.46;95.30
25238;BME280;13185;50.872;5.306;2023-05-23T07:18:50;101802.72;;;14.48;94.66
25238;BME280;13185;50.872;5.306;2023-05-23T07:21:16;101796.69;;;14.44;93.75
25238;BME280;13185;50.872;5.306;2023-05-23T07:23:43;101807.53;;;14.43;93.52
25238;BME280;13185;50.872;5.306;2023-05-23T07:26:09;101803.13;;;14.42;93.26
25238;BME280;13185;50.872;5.306;2023-05-23T07:28:44;101808.50;;;14.42;93.10
25238;BME280;13185;50.872;5.306;2023-05-23T07:31:10;101809.19;;;14.46;93.15
25238;BME280;13185;50.872;5.306;2023-05-23T07:33:37;101811.91;;;14.46;92.71
25238;BME280;13185;50.872;5.306;2023-05-23T07:36:03;101810.75;;;14.50;92.35
25238;BME280;13185;50.872;5.306;2023-05-23T07:38:29;101818.31;;;14.57;91.90
25238;BME280;13185;50.872;5.306;2023-05-23T07:40:54;101819.09;;;14.59;91.59
25238;BME280;13185;50.872;5.306;2023-05-23T07:43:21;101820.91;;;14.59;91.09
25238;BME280;13185;50.872;5.306;2023-05-23T07:45:47;101819.19;;;14.58;90.56
25238;BME280;13185;50.872;5.306;2023-05-23T07:48:12;101828.47;;;14.54;90.06
25238;BME280;13185;50.872;5.306;2023-05-23T07:50:41;101827.81;;;14.50;89.20
25238;BME280;13185;50.872;5.306;2023-05-23T07:53:07;101830.50;;;14.50;89.30
25238;BME280;13185;50.872;5.306;2023-05-23T07:55:33;101823.38;;;14.49;88.83
25238;BME280;13185;50.872;5.306;2023-05-23T07:57:59;101836.44;;;14.55;88.60
25238;BME280;13185;50.872;5.306;2023-05-23T08:00:26;101837.03;;;14.60;88.05
25238;BME280;13185;50.872;5.306;2023-05-23T08:02:56;101840.50;;;14.62;87.59
25238;BME280;13185;50.872;5.306;2023-05-23T08:05:28;101848.16;;;14.68;87.00
25238;BME280;13185;50.872;5.306;2023-05-23T08:07:55;101847.00;;;14.72;86.75
25238;BME280;13185;50.872;5.306;2023-05-23T08:10:21;101842.25;;;14.76;85.55
25238;BME280;13185;50.872;5.306;2023-05-23T08:12:47;101847.56;;;14.78;85.32
25238;BME280;13185;50.872;5.306;2023-05-23T08:15:16;101848.41;;;14.78;84.96
25238;BME280;13185;50.872;5.306;2023-05-23T08:17:46;101845.53;;;14.81;84.77
25238;BME280;13185;50.872;5.306;2023-05-23T08:20:12;101851.59;;;14.85;84.73
25238;BME280;13185;50.872;5.306;2023-05-23T08:22:39;101851.22;;;14.77;84.68
25238;BME280;13185;50.872;5.306;2023-05-23T08:25:05;101853.88;;;14.64;84.84
25238;BME280;13185;50.872;5.306;2023-05-23T08:27:34;101853.41;;;14.57;84.86
25238;BME280;13185;50.872;5.306;2023-05-23T08:30:06;101859.88;;;14.55;84.97
25238;BME280;13185;50.872;5.306;2023-05-23T08:32:33;101860.09;;;14.52;84.95
25238;BME280;13185;50.872;5.306;2023-05-23T08:34:59;101870.19;;;14.48;84.76
25238;BME280;13185;50.872;5.306;2023-05-23T08:37:25;101868.75;;;14.42;84.72
25238;BME280;13185;50.872;5.306;2023-05-23T08:39:51;101878.88;;;14.39;84.83
25238;BME280;13185;50.872;5.306;2023-05-23T08:42:35;101872.69;;;14.37;84.84
25238;BME280;13185;50.872;5.306;2023-05-23T08:45:02;101878.97;;;14.37;85.12
25238;BME280;13185;50.872;5.306;2023-05-23T08:47:29;101879.06;;;14.36;84.86
25238;BME280;13185;50.872;5.306;2023-05-23T08:50:01;101879.47;;;14.30;84.42
25238;BME280;13185;50.872;5.306;2023-05-23T08:52:28;101878.50;;;14.31;83.97
25238;BME280;13185;50.872;5.306;2023-05-23T08:54:59;101888.34;;;14.32;84.11
25238;BME280;13185;50.872;5.306;2023-05-23T08:57:27;101890.28;;;14.30;83.42
25238;BME280;13185;50.872;5.306;2023-05-23T08:59:59;101886.81;;;14.28;83.29
25238;BME280;13185;50.872;5.306;2023-05-23T09:02:25;101877.91;;;14.26;83.31
25238;BME280;13185;50.872;5.306;2023-05-23T09:04:58;101897.28;;;14.32;83.35
25238;BME280;13185;50.872;5.306;2023-05-23T09:07:24;101899.03;;;14.33;82.53
25238;BME280;13185;50.872;5.306;2023-05-23T09:09:51;101898.16;;;14.33;82.30
25238;BME280;13185;50.872;5.306;2023-05-23T09:12:17;101897.28;;;14.32;81.86
25238;BME280;13185;50.872;5.306;2023-05-23T09:14:47;101898.91;;;14.35;81.63
25238;BME280;13185;50.872;5.306;2023-05-23T09:17:17;101896.81;;;14.40;81.60
25238;BME280;13185;50.872;5.306;2023-05-23T09:19:44;101896.03;;;14.52;82.11
25238;BME280;13185;50.872;5.306;2023-05-23T09:22:26;101905.94;;;14.66;81.14
25238;BME280;13185;50.872;5.306;2023-05-23T09:24:59;101893.81;;;14.86;80.69
25238;BME280;13185;50.872;5.306;2023-05-23T09:27:26;101898.41;;;14.98;79.39
25238;BME280;13185;50.872;5.306;2023-05-23T09:29:52;101903.44;;;15.17;78.64
25238;BME280;13185;50.872;5.306;2023-05-23T09:32:19;101900.66;;;15.31;76.69
25238;BME280;13185;50.872;5.306;2023-05-23T09:35:01;101902.31;;;15.46;76.75
25238;BME280;13185;50.872;5.306;2023-05-23T09:37:39;101887.03;;;15.72;76.41
25238;BME280;13185;50.872;5.306;2023-05-23T09:40:07;101897.09;;;15.96;75.12
25238;BME280;13185;50.872;5.306;2023-05-23T09:42:44;101898.03;;;16.20;73.64
25238;BME280;13185;50.872;5.306;2023-05-23T09:45:11;101890.75;;;16.33;69.65
25238;BME280;13185;50.872;5.306;2023-05-23T09:47:37;101898.66;;;16.49;69.80
25238;BME280;13185;50.872;5.306;2023-05-23T09:50:03;101886.03;;;16.61;69.43
25238;BME280;13185;50.872;5.306;2023-05-23T09:52:36;101882.84;;;16.67;68.40
25238;BME280;13185;50.872;5.306;2023-05-23T09:55:06;101887.50;;;16.78;68.26
25238;BME280;13185;50.872;5.306;2023-05-23T09:57:37;101882.31;;;16.74;67.14
25238;BME280;13185;50.872;5.306;2023-05-23T10:00:05;101883.50;;;16.83;67.80
25238;BME280;13185;50.872;5.306;2023-05-23T10:05:45;101890.81;;;16.70;66.49
25238;BME280;13185;50.872;5.306;2023-05-23T10:08:29;101901.75;;;16.68;65.70
25238;BME280;13185;50.872;5.306;2023-05-23T10:13:51;101899.81;;;16.70;66.26
25238;BME280;13185;50.872;5.306;2023-05-23T10:16:42;101909.19;;;16.78;66.10
25238;BME280;13185;50.872;5.306;2023-05-23T10:19:21;101905.28;;;16.82;65.78
25238;BME280;13185;50.872;5.306;2023-05-23T10:21:50;101908.84;;;16.82;66.19
25238;BME280;13185;50.872;5.306;2023-05-23T10:24:20;101915.06;;;16.71;65.29
25238;BME280;13185;50.872;5.306;2023-05-23T10:26:47;101909.09;;;16.79;65.51
25238;BME280;13185;50.872;5.306;2023-05-23T10:29:12;101920.13;;;16.89;65.86
25238;BME280;13185;50.872;5.306;2023-05-23T10:31:39;101915.94;;;16.96;66.07
25238;BME280;13185;50.872;5.306;2023-05-23T10:36:54;101922.03;;;16.99;65.40
25238;BME280;13185;50.872;5.306;2023-05-23T10:42:14;101921.78;;;17.02;63.71
25238;BME280;13185;50.872;5.306;2023-05-23T10:44:41;101920.56;;;17.07;63.88
25238;BME280;13185;50.872;5.306;2023-05-23T10:47:07;101924.13;;;17.07;63.88
25238;BME280;13185;50.872;5.306;2023-05-23T10:49:44;101921.88;;;17.25;64.66
25238;BME280;13185;50.872;5.306;2023-05-23T10:52:11;101923.06;;;17.45;64.46
25238;BME280;13185;50.872;5.306;2023-05-23T10:57:09;101913.47;;;17.87;62.72
25238;BME280;13185;50.872;5.306;2023-05-23T10:59:36;101918.31;;;18.06;62.40
25238;BME280;13185;50.872;5.306;2023-05-23T11:02:05;101919.03;;;18.19;60.92
25238;BME280;13185;50.872;5.306;2023-05-23T11:04:33;101904.88;;;18.27;60.69
25238;BME280;13185;50.872;5.306;2023-05-23T11:06:59;101915.22;;;18.33;60.00
25238;BME280;13185;50.872;5.306;2023-05-23T11:09:25;101915.47;;;18.41;60.26
25238;BME280;13185;50.872;5.306;2023-05-23T11:16:57;101919.91;;;18.64;59.29
25238;BME280;13185;50.872;5.306;2023-05-23T11:19:25;101915.69;;;18.71;59.66
25238;BME280;13185;50.872;5.306;2023-05-23T11:21:58;101915.56;;;18.73;59.08
25238;BME280;13185;50.872;5.306;2023-05-23T11:24:55;101912.84;;;18.62;57.77
25238;BME280;13185;50.872;5.306;2023-05-23T11:27:31;101908.66;;;18.58;57.48
25238;BME280;13185;50.872;5.306;2023-05-23T11:32:27;101915.09;;;18.45;58.07
25238;BME280;13185;50.872;5.306;2023-05-23T11:34:54;101910.00;;;18.52;57.73
25238;BME280;13185;50.872;5.306;2023-05-23T11:37:20;101913.38;;;18.56;57.17
25238;BME280;13185;50.872;5.306;2023-05-23T11:39:48;101908.41;;;18.72;56.88
25238;BME280;13185;50.872;5.306;2023-05-23T11:42:13;101903.91;;;18.93;56.48
25238;BME280;13185;50.872;5.306;2023-05-23T11:44:39;101903.44;;;19.20;56.01
25238;BME280;13185;50.872;5.306;2023-05-23T11:47:05;101905.91;;;19.23;55.55
25238;BME280;13185;50.872;5.306;2023-05-23T11:49:35;101905.44;;;19.18;54.84
25238;BME280;13185;50.872;5.306;2023-05-23T11:52:02;101904.63;;;18.95;54.05
25238;BME280;13185;50.872;5.306;2023-05-23T11:54:28;101898.84;;;19.00;53.60
25238;BME280;13185;50.872;5.306;2023-05-23T11:56:54;101908.28;;;19.17;54.06
25238;BME280;13185;50.872;5.306;2023-05-23T11:59:22;101901.34;;;19.45;54.07
25238;BME280;13185;50.872;5.306;2023-05-23T12:01:48;101892.63;;;19.62;53.76
25238;BME280;13185;50.872;5.306;2023-05-23T12:04:13;101899.59;;;19.76;53.05
25238;BME280;13185;50.872;5.306;2023-05-23T12:06:39;101898.00;;;19.73;51.55
25238;BME280;13185;50.872;5.306;2023-05-23T12:09:06;101905.19;;;19.74;51.94
25238;BME280;13185;50.872;5.306;2023-05-23T12:11:33;101911.53;;;19.84;51.29
25238;BME280;13185;50.872;5.306;2023-05-23T12:13:59;101914.03;;;19.97;51.24
25238;BME280;13185;50.872;5.306;2023-05-23T12:16:30;101900.34;;;20.08;50.54
25238;BME280;13185;50.872;5.306;2023-05-23T12:18:56;101897.03;;;20.05;49.07
25238;BME280;13185;50.872;5.306;2023-05-23T12:21:25;101902.38;;;19.85;48.59
25238;BME280;13185;50.872;5.306;2023-05-23T12:23:51;101905.28;;;19.94;48.51
25238;BME280;13185;50.872;5.306;2023-05-23T12:26:16;101903.78;;;20.10;48.87
25238;BME280;13185;50.872;5.306;2023-05-23T12:28:43;101899.38;;;20.19;48.35
25238;BME280;13185;50.872;5.306;2023-05-23T12:31:15;101899.91;;;20.34;48.25
25238;BME280;13185;50.872;5.306;2023-05-23T12:33:44;101907.50;;;20.40;48.00
25238;BME280;13185;50.872;5.306;2023-05-23T12:36:12;101903.19;;;20.37;46.71
25238;BME280;13185;50.872;5.306;2023-05-23T12:38:39;101900.03;;;20.42;46.17
25238;BME280;13185;50.872;5.306;2023-05-23T12:41:14;101900.53;;;20.47;45.75
25238;BME280;13185;50.872;5.306;2023-05-23T12:43:49;101897.00;;;20.56;45.77
25238;BME280;13185;50.872;5.306;2023-05-23T12:46:15;101904.00;;;20.49;45.95
25238;BME280;13185;50.872;5.306;2023-05-23T12:48:41;101904.06;;;20.38;44.56
25238;BME280;13185;50.872;5.306;2023-05-23T12:51:06;101904.06;;;20.38;44.71
25238;BME280;13185;50.872;5.306;2023-05-23T12:53:32;101905.84;;;20.49;44.96
25238;BME280;13185;50.872;5.306;2023-05-23T12:55:57;101914.22;;;20.66;46.19
25238;BME280;13185;50.872;5.306;2023-05-23T12:58:23;101902.47;;;20.66;45.44
25238;BME280;13185;50.872;5.306;2023-05-23T13:00:49;101906.19;;;20.65;44.66
25238;BME280;13185;50.872;5.306;2023-05-23T13:03:14;101901.28;;;20.59;44.37
25238;BME280;13185;50.872;5.306;2023-05-23T13:05:41;101906.13;;;20.45;44.69
25238;BME280;13185;50.872;5.306;2023-05-23T13:08:07;101897.53;;;20.50;44.84
25238;BME280;13185;50.872;5.306;2023-05-23T13:10:32;101909.75;;;20.56;45.34
25238;BME280;13185;50.872;5.306;2023-05-23T13:12:58;101900.16;;;20.71;45.83
25238;BME280;13185;50.872;5.306;2023-05-23T13:15:23;101899.03;;;20.83;45.16
25238;BME280;13185;50.872;5.306;2023-05-23T13:17:49;101899.91;;;20.84;44.61